Main page
METAR-TAF:

Airports :

London, England

London City Airport

latitude: 51-30N, longitude: 000-03E, elevation: 5 m

Current weather observation

The report was made 30 minutes ago, at 14:20 UTC
Wind 4 kt from the West, varying between Southwest and North/Northwest
Temperature 22°C
Humidity 50%
Pressure 1013 hPa
Visibility 10 km or more

METAR: EGLC 301420Z AUTO 27004KT 230V340 9999 BKN040/// 22/11 Q1013

Time: 15:50 (14:50 UTC)

Forecast

The report was made 6 hours and 50 minutes ago, at 08:00 UTC
Forecast valid from 30 at 09 UTC to 30 at 12 UTC
Wind 6 kt from the West/Northwest
Visibility 10 km or more
Scattered clouds at a height of 3000 ft

TAF: EGLC 300800Z 3009/3012 29006KT 9999 SCT030

METAR-TAF

Weather observations and forecasts of more than 4000 airports (METAR and TAF reports).

The available stations are represented by yellow and red dots on the map.

Hover mouse over dot to see the name of the station.

Then click to see weather observations and forecasts.

To change the map : click on the green buttons with a black cross to zoom in, on the green button with a dash to zoom out, or on the green arrows for adjacent maps.


METAR-TAF: